Time;durP1;ratioP1;P1;durP2;ratioP2;P2;SDS_P1;SDS_P2;PMS_P1;PMS_P2;Temp;Humidity;BMP_temperature;BMP_pressure;BME280_temperature;BME280_humidity;BME280_pressure;Samples;Min_cycle;Max_cycle;Signal;HPM_P1;HPM_P2
2023/06/22 00:00:47;;;;;;;0.10;0.10;;;;;;;;;;5109178;28;20728;-52
2023/06/22 00:03:12;;;;;;;0.10;0.10;;;;;;;;;;5109362;28;20048;-51
2023/06/22 00:05:38;;;;;;;0.10;0.10;;;;;;;;;;5102305;28;20143;-51
2023/06/22 00:08:04;;;;;;;0.10;0.10;;;;;;;;;;5108286;28;20146;-51
2023/06/22 00:10:30;;;;;;;0.10;0.10;;;;;;;;;;5108614;28;20063;-52
2023/06/22 00:12:56;;;;;;;0.10;0.10;;;;;;;;;;5108747;28;20415;-51
2023/06/22 00:15:21;;;;;;;0.10;0.10;;;;;;;;;;5106856;28;20509;-51
2023/06/22 00:17:47;;;;;;;0.10;0.10;;;;;;;;;;5108142;28;20149;-52
2023/06/22 00:20:14;;;;;;;0.10;0.10;;;;;;;;;;5108358;28;20109;-52
2023/06/22 00:22:40;;;;;;;0.10;0.10;;;;;;;;;;5082376;28;20048;-50
2023/06/22 00:25:06;;;;;;;0.10;0.10;;;;;;;;;;5109964;28;20059;-52
2023/06/22 00:27:32;;;;;;;0.10;0.10;;;;;;;;;;5090157;28;20071;-51
2023/06/22 00:29:58;;;;;;;0.10;0.10;;;;;;;;;;5089395;28;20143;-50
2023/06/22 00:32:23;;;;;;;0.10;0.10;;;;;;;;;;5108487;28;20426;-52
2023/06/22 00:34:50;;;;;;;0.10;0.10;;;;;;;;;;5108234;28;20059;-51
2023/06/22 00:37:16;;;;;;;0.10;0.10;;;;;;;;;;5108364;28;20089;-52
2023/06/22 00:39:42;;;;;;;0.10;0.10;;;;;;;;;;5107925;28;20051;-53
2023/06/22 00:42:08;;;;;;;0.10;0.10;;;;;;;;;;5090190;28;20046;-52
2023/06/22 00:44:34;;;;;;;0.10;0.10;;;;;;;;;;5108120;28;20509;-51
2023/06/22 00:47:00;;;;;;;0.10;0.10;;;;;;;;;;5108153;28;20087;-51
2023/06/22 00:49:26;;;;;;;0.10;0.10;;;;;;;;;;5107632;28;20048;-52
2023/06/22 00:51:52;;;;;;;0.10;0.10;;;;;;;;;;5107899;28;20051;-52
2023/06/22 00:54:24;;;;;;;0.10;0.10;;;;;;;;;;5089950;28;20434;-52
2023/06/22 00:56:54;;;;;;;0.10;0.10;;;;;;;;;;5107894;28;20083;-51
2023/06/22 00:59:20;;;;;;;0.10;0.10;;;;;;;;;;5091012;28;20051;-50
2023/06/22 01:01:45;;;;;;;0.10;0.10;;;;;;;;;;5107713;28;20075;-52
2023/06/22 01:04:11;;;;;;;0.10;0.10;;;;;;;;;;5108542;28;20494;-49
2023/06/22 01:06:41;;;;;;;0.32;0.10;;;;;;;;;;5107592;28;20469;-52
2023/06/22 01:09:10;;;;;;;0.10;0.10;;;;;;;;;;5107449;28;20055;-50
2023/06/22 01:11:39;;;;;;;0.10;0.10;;;;;;;;;;5108032;28;20067;-51
2023/06/22 01:14:04;;;;;;;;;;;;;;;;;;5107745;28;20085;-50
2023/06/22 01:16:31;;;;;;;0.10;0.10;;;;;;;;;;5107537;28;19924;-50
2023/06/22 01:18:59;;;;;;;0.10;0.10;;;;;;;;;;5090066;28;20096;-52
2023/06/22 01:21:27;;;;;;;0.10;0.10;;;;;;;;;;5107322;28;20066;-48
2023/06/22 01:24:08;;;;;;;0.10;0.10;;;;;;;;;;5107403;28;20502;-52
2023/06/22 01:26:38;;;;;;;0.10;0.10;;;;;;;;;;5107043;28;20082;-51
2023/06/22 01:29:05;;;;;;;0.10;0.10;;;;;;;;;;5105566;28;20051;-52
2023/06/22 01:31:32;;;;;;;0.10;0.10;;;;;;;;;;5107537;28;20320;-51
2023/06/22 01:34:00;;;;;;;0.10;0.10;;;;;;;;;;5106966;28;20055;-51
2023/06/22 01:36:26;;;;;;;0.10;0.10;;;;;;;;;;5106990;28;20051;-52
2023/06/22 01:38:52;;;;;;;0.10;0.10;;;;;;;;;;5088666;28;20122;-52
2023/06/22 01:41:18;;;;;;;0.10;0.10;;;;;;;;;;5107220;28;20545;-51
2023/06/22 01:43:45;;;;;;;0.10;0.10;;;;;;;;;;5107119;28;20433;-51
2023/06/22 01:46:10;;;;;;;0.10;0.10;;;;;;;;;;5089538;28;20055;-52
2023/06/22 01:48:36;;;;;;;0.20;0.20;;;;;;;;;;5107403;28;20039;-51
2023/06/22 01:51:02;;;;;;;0.10;0.10;;;;;;;;;;5107382;28;20165;-52
2023/06/22 01:53:27;;;;;;;0.10;0.10;;;;;;;;;;5107381;28;20044;-51
2023/06/22 01:55:53;;;;;;;0.10;0.10;;;;;;;;;;5106950;28;20055;-52
2023/06/22 01:58:20;;;;;;;0.10;0.10;;;;;;;;;;5107378;28;20412;-51
2023/06/22 02:00:48;;;;;;;0.10;0.10;;;;;;;;;;5088136;28;20081;-52
2023/06/22 02:03:17;;;;;;;0.10;0.10;;;;;;;;;;5106696;28;20071;-53
2023/06/22 02:05:45;;;;;;;0.10;0.10;;;;;;;;;;5107368;28;20062;-50
2023/06/22 02:08:15;;;;;;;0.10;0.10;;;;;;;;;;5105870;28;20074;-52
2023/06/22 02:10:42;;;;;;;0.10;0.10;;;;;;;;;;5088491;28;20051;-51
2023/06/22 02:13:10;;;;;;;0.10;0.10;;;;;;;;;;5106903;28;20218;-52
2023/06/22 02:15:36;;;;;;;0.10;0.10;;;;;;;;;;5105989;28;20236;-52
2023/06/22 02:18:02;;;;;;;0.10;0.10;;;;;;;;;;5106754;28;20422;-52
2023/06/22 02:20:27;;;;;;;0.10;0.10;;;;;;;;;;5105799;28;20178;-52
2023/06/22 02:22:53;;;;;;;0.10;0.10;;;;;;;;;;5096424;28;20044;-47
2023/06/22 02:25:19;;;;;;;0.10;0.10;;;;;;;;;;5086529;28;20056;-45
2023/06/22 02:27:45;;;;;;;0.10;0.10;;;;;;;;;;5087821;28;20048;-46
2023/06/22 02:30:10;;;;;;;0.10;0.10;;;;;;;;;;5105389;28;20468;-45
2023/06/22 02:32:36;;;;;;;0.10;0.10;;;;;;;;;;5106833;28;20321;-46
2023/06/22 02:35:06;;;;;;;0.10;0.10;;;;;;;;;;5105940;28;20044;-44
2023/06/22 02:37:32;;;;;;;0.10;0.10;;;;;;;;;;5105372;28;20043;-46
2023/06/22 02:39:57;;;;;;;0.10;0.10;;;;;;;;;;5086908;28;20051;-45
2023/06/22 02:42:23;;;;;;;0.10;0.10;;;;;;;;;;5106306;28;20134;-45
2023/06/22 02:44:48;;;;;;;0.10;0.10;;;;;;;;;;5105236;28;20086;-45
2023/06/22 02:47:14;;;;;;;0.10;0.10;;;;;;;;;;5105956;28;20056;-48
2023/06/22 02:49:39;;;;;;;0.10;0.10;;;;;;;;;;5105502;28;20599;-44
2023/06/22 02:52:05;;;;;;;0.10;0.10;;;;;;;;;;5106215;28;20105;-47
2023/06/22 02:54:31;;;;;;;0.10;0.10;;;;;;;;;;5106115;28;20522;-44
2023/06/22 02:56:56;;;;;;;0.10;0.10;;;;;;;;;;5105384;28;20066;-44
2023/06/22 02:59:23;;;;;;;0.10;0.10;;;;;;;;;;5105972;28;20051;-43
2023/06/22 03:01:49;;;;;;;0.10;0.10;;;;;;;;;;5105511;28;20052;-44
2023/06/22 03:04:15;;;;;;;0.10;0.10;;;;;;;;;;5105758;28;20558;-44
2023/06/22 03:06:41;;;;;;;0.10;0.10;;;;;;;;;;5106940;28;20047;-44
2023/06/22 03:09:06;;;;;;;0.15;0.15;;;;;;;;;;5108996;28;20550;-43
2023/06/22 03:11:32;;;;;;;0.10;0.10;;;;;;;;;;5094438;28;20051;-47
2023/06/22 03:13:59;;;;;;;0.10;0.10;;;;;;;;;;5090191;28;20071;-45
2023/06/22 03:16:24;;;;;;;0.10;0.10;;;;;;;;;;5090954;28;20083;-46
2023/06/22 03:18:50;;;;;;;0.10;0.10;;;;;;;;;;5109087;28;20445;-43
2023/06/22 03:21:16;;;;;;;0.10;0.10;;;;;;;;;;5107098;28;20089;-45
2023/06/22 03:23:42;;;;;;;0.10;0.10;;;;;;;;;;5125615;28;20541;-44
2023/06/22 03:26:08;;;;;;;0.10;0.10;;;;;;;;;;5129693;28;20516;-44
2023/06/22 03:28:34;;;;;;;0.10;0.10;;;;;;;;;;5129491;28;20055;-46
2023/06/22 03:30:59;;;;;;;0.10;0.10;;;;;;;;;;5096530;28;20090;-45
2023/06/22 03:33:25;;;;;;;0.10;0.10;;;;;;;;;;5109454;28;20044;-45
2023/06/22 03:35:50;;;;;;;0.10;0.10;;;;;;;;;;5108953;28;20167;-46
2023/06/22 03:38:16;;;;;;;0.10;0.10;;;;;;;;;;5108293;28;20661;-44
2023/06/22 03:40:42;;;;;;;0.10;0.10;;;;;;;;;;5108444;28;20052;-45
2023/06/22 03:43:07;;;;;;;0.10;0.10;;;;;;;;;;5090561;28;20267;-46
2023/06/22 03:45:33;;;;;;;0.10;0.10;;;;;;;;;;5107906;28;20089;-45
2023/06/22 03:47:58;;;;;;;0.10;0.10;;;;;;;;;;5108245;28;20401;-44
2023/06/22 03:50:24;;;;;;;0.10;0.10;;;;;;;;;;5108237;28;20059;-43
2023/06/22 03:52:51;;;;;;;0.10;0.10;;;;;;;;;;5109319;28;20495;-47
2023/06/22 03:55:16;;;;;;;0.10;0.10;;;;;;;;;;5108634;28;20048;-43
2023/06/22 03:57:42;;;;;;;0.10;0.10;;;;;;;;;;5108462;28;20352;-45
2023/06/22 04:00:08;;;;;;;0.10;0.10;;;;;;;;;;5108775;28;20048;-44
2023/06/22 04:02:33;;;;;;;0.10;0.10;;;;;;;;;;5109095;28;20067;-46
2023/06/22 04:04:59;;;;;;;0.10;0.10;;;;;;;;;;5108824;28;20083;-45
2023/06/22 04:07:27;;;;;;;0.10;0.10;;;;;;;;;;5108547;28;20082;-46
2023/06/22 04:09:53;;;;;;;0.10;0.10;;;;;;;;;;5107788;28;20051;-44
2023/06/22 04:12:18;;;;;;;0.10;0.10;;;;;;;;;;5108732;28;20320;-47
2023/06/22 04:14:44;;;;;;;0.10;0.10;;;;;;;;;;5108333;28;20469;-45
2023/06/22 04:17:09;;;;;;;0.10;0.10;;;;;;;;;;5107337;28;20427;-44
2023/06/22 04:19:35;;;;;;;0.10;0.10;;;;;;;;;;5107224;28;20078;-43
2023/06/22 04:22:00;;;;;;;0.10;0.10;;;;;;;;;;5102020;28;20703;-45
2023/06/22 04:24:26;;;;;;;0.10;0.10;;;;;;;;;;5109343;28;20074;-44
2023/06/22 04:26:54;;;;;;;0.10;0.10;;;;;;;;;;5108675;28;20523;-43
2023/06/22 04:29:20;;;;;;;0.10;0.10;;;;;;;;;;5108193;28;20709;-45
2023/06/22 04:31:48;;;;;;;0.10;0.10;;;;;;;;;;5107750;28;20047;-46
2023/06/22 04:34:16;;;;;;;0.10;0.10;;;;;;;;;;5108461;28;20047;-45
2023/06/22 04:36:41;;;;;;;0.10;0.10;;;;;;;;;;5108033;28;20071;-46
2023/06/22 04:39:09;;;;;;;0.10;0.10;;;;;;;;;;5107837;28;20491;-45
2023/06/22 04:41:42;;;;;;;0.03;0.03;;;;;;;;;;5092548;28;20047;-47
2023/06/22 04:44:09;;;;;;;0.10;0.10;;;;;;;;;;5107938;28;20040;-46
2023/06/22 04:46:38;;;;;;;0.10;0.10;;;;;;;;;;5107835;28;20686;-47
2023/06/22 04:49:06;;;;;;;0.10;0.10;;;;;;;;;;5106238;28;20039;-44
2023/06/22 04:51:31;;;;;;;;;;;;;;;;;;5090122;28;20282;-44
2023/06/22 04:54:00;;;;;;;0.10;0.10;;;;;;;;;;5107638;28;19920;-47
2023/06/22 04:56:27;;;;;;;0.10;0.10;;;;;;;;;;5107919;28;20484;-44
2023/06/22 04:58:55;;;;;;;0.10;0.10;;;;;;;;;;5108092;28;20490;-45
2023/06/22 05:01:22;;;;;;;0.10;0.10;;;;;;;;;;5107674;28;20441;-46
2023/06/22 05:03:48;;;;;;;0.10;0.10;;;;;;;;;;5108124;28;20056;-44
2023/06/22 05:06:14;;;;;;;0.10;0.10;;;;;;;;;;5107695;28;20060;-47
2023/06/22 05:08:40;;;;;;;0.10;0.10;;;;;;;;;;5107391;28;20046;-48
2023/06/22 05:11:05;;;;;;;0.10;0.10;;;;;;;;;;5107443;28;20075;-46
2023/06/22 05:13:32;;;;;;;0.10;0.10;;;;;;;;;;5107863;28;20510;-44
2023/06/22 05:16:01;;;;;;;0.10;0.10;;;;;;;;;;5107564;28;20396;-45
2023/06/22 05:18:29;;;;;;;0.10;0.10;;;;;;;;;;5107553;28;20044;-45
2023/06/22 05:20:55;;;;;;;0.10;0.10;;;;;;;;;;5109210;28;20268;-45
2023/06/22 05:23:20;;;;;;;0.10;0.10;;;;;;;;;;5114119;27;20062;-45
2023/06/22 05:25:46;;;;;;;0.10;0.10;;;;;;;;;;5106386;28;20047;-45
2023/06/22 05:28:12;;;;;;;0.10;0.10;;;;;;;;;;5107432;28;20048;-45
2023/06/22 05:30:38;;;;;;;0.10;0.10;;;;;;;;;;5106894;28;20047;-45
2023/06/22 05:33:03;;;;;;;0.10;0.10;;;;;;;;;;5107089;28;20100;-46
2023/06/22 05:35:29;;;;;;;0.10;0.10;;;;;;;;;;5106668;28;20043;-44
2023/06/22 05:37:55;;;;;;;0.10;0.10;;;;;;;;;;5106634;28;20056;-45
2023/06/22 05:40:20;;;;;;;0.10;0.10;;;;;;;;;;5106373;28;20328;-45
2023/06/22 05:42:46;;;;;;;0.10;0.10;;;;;;;;;;5096183;28;20048;-45
2023/06/22 05:45:11;;;;;;;0.10;0.10;;;;;;;;;;5107216;28;20063;-43
2023/06/22 05:47:37;;;;;;;0.10;0.10;;;;;;;;;;5107340;28;20286;-44
2023/06/22 05:50:06;;;;;;;0.10;0.10;;;;;;;;;;5105660;28;20175;-43
2023/06/22 05:52:32;;;;;;;0.10;0.10;;;;;;;;;;5107471;28;20303;-46
2023/06/22 05:54:57;;;;;;;0.10;0.10;;;;;;;;;;5105424;28;20112;-45
2023/06/22 05:57:23;;;;;;;0.10;0.10;;;;;;;;;;5106514;28;20179;-47
2023/06/22 05:59:49;;;;;;;0.10;0.10;;;;;;;;;;5106738;28;20476;-45
2023/06/22 06:02:14;;;;;;;0.10;0.10;;;;;;;;;;5107520;28;20075;-46
2023/06/22 06:04:40;;;;;;;0.20;0.20;;;;;;;;;;5107481;28;20084;-46
2023/06/22 06:07:06;;;;;;;0.10;0.10;;;;;;;;;;5107074;28;20050;-44
2023/06/22 06:09:32;;;;;;;0.10;0.10;;;;;;;;;;5091445;28;20048;-46
2023/06/22 06:11:57;;;;;;;0.10;0.10;;;;;;;;;;5107034;28;20050;-46
2023/06/22 06:14:23;;;;;;;0.10;0.10;;;;;;;;;;5106986;28;20095;-45
2023/06/22 06:16:49;;;;;;;0.10;0.10;;;;;;;;;;5107063;28;20074;-45
2023/06/22 06:19:14;;;;;;;0.10;0.10;;;;;;;;;;5106607;28;20048;-44
2023/06/22 06:21:40;;;;;;;0.10;0.10;;;;;;;;;;5124558;27;20169;-46
2023/06/22 06:24:05;;;;;;;0.10;0.10;;;;;;;;;;5107435;28;20255;-47
2023/06/22 06:26:32;;;;;;;0.10;0.10;;;;;;;;;;5107115;28;20167;-44
2023/06/22 06:29:00;;;;;;;0.10;0.10;;;;;;;;;;5106980;28;20082;-42
2023/06/22 06:31:28;;;;;;;0.10;0.10;;;;;;;;;;5105773;28;20306;-43
2023/06/22 06:33:54;;;;;;;0.10;0.10;;;;;;;;;;5107105;28;20051;-44
2023/06/22 06:36:20;;;;;;;0.10;0.10;;;;;;;;;;5106110;28;20255;-42
2023/06/22 06:38:47;;;;;;;0.10;0.10;;;;;;;;;;5106133;28;20185;-45
2023/06/22 06:41:15;;;;;;;0.10;0.10;;;;;;;;;;5105652;28;20183;-43
2023/06/22 06:43:42;;;;;;;;;;;;;;;;;;5106428;28;20087;-40
2023/06/22 06:46:08;;;;;;;0.10;0.10;;;;;;;;;;5106672;28;19952;-43
2023/06/22 06:48:33;;;;;;;0.10;0.10;;;;;;;;;;5105981;28;20051;-44
2023/06/22 06:50:59;;;;;;;0.10;0.10;;;;;;;;;;5103250;28;20375;-42
2023/06/22 06:53:24;;;;;;;0.10;0.10;;;;;;;;;;5104503;28;20407;-42
2023/06/22 06:55:50;;;;;;;0.10;0.10;;;;;;;;;;5108592;28;20069;-42
2023/06/22 06:58:16;;;;;;;0.10;0.10;;;;;;;;;;5107222;28;20046;-46
2023/06/22 07:00:43;;;;;;;0.10;0.10;;;;;;;;;;5105737;28;20186;-43
2023/06/22 07:03:08;;;;;;;0.10;0.10;;;;;;;;;;5104929;28;20132;-42
2023/06/22 07:05:35;;;;;;;0.10;0.10;;;;;;;;;;5105725;28;20396;-43
2023/06/22 07:08:00;;;;;;;0.10;0.10;;;;;;;;;;5105582;28;20089;-45
2023/06/22 07:10:26;;;;;;;0.10;0.10;;;;;;;;;;5098851;28;20110;-45
2023/06/22 07:12:52;;;;;;;0.10;0.10;;;;;;;;;;5104750;28;20052;-45
2023/06/22 07:15:18;;;;;;;0.10;0.10;;;;;;;;;;5107036;28;20054;-44
2023/06/22 07:17:43;;;;;;;0.10;0.10;;;;;;;;;;5113177;28;20044;-45
2023/06/22 07:20:11;;;;;;;0.10;0.10;;;;;;;;;;5104306;28;20166;-42
2023/06/22 07:22:37;;;;;;;;;;;;;;;;;;5087922;28;20047;-42
2023/06/22 07:25:08;;;;;;;0.28;0.20;;;;;;;;;;5104775;28;19927;-42
2023/06/22 07:27:37;;;;;;;0.10;0.10;;;;;;;;;;5105141;28;20109;-42
2023/06/22 07:30:03;;;;;;;0.10;0.10;;;;;;;;;;5102872;28;20083;-42
2023/06/22 07:32:29;;;;;;;0.10;0.10;;;;;;;;;;5100534;28;21366;-45
2023/06/22 07:34:54;;;;;;;0.10;0.10;;;;;;;;;;5105398;28;20046;-45
2023/06/22 07:37:20;;;;;;;0.10;0.10;;;;;;;;;;5103042;28;20059;-43
2023/06/22 07:39:46;;;;;;;0.10;0.10;;;;;;;;;;5104157;28;20146;-42
2023/06/22 07:42:11;;;;;;;0.10;0.10;;;;;;;;;;5105503;28;20054;-43
2023/06/22 07:44:37;;;;;;;0.10;0.10;;;;;;;;;;5103466;28;20138;-41
2023/06/22 07:47:02;;;;;;;0.10;0.10;;;;;;;;;;5105113;28;20036;-45
2023/06/22 07:49:28;;;;;;;0.10;0.10;;;;;;;;;;5104198;28;20337;-43
2023/06/22 07:51:53;;;;;;;0.10;0.10;;;;;;;;;;5103970;28;20071;-45
2023/06/22 07:54:19;;;;;;;0.10;0.10;;;;;;;;;;5107182;28;20054;-48
2023/06/22 07:56:46;;;;;;;0.10;0.10;;;;;;;;;;5107578;28;20052;-42
2023/06/22 07:59:11;;;;;;;0.10;0.10;;;;;;;;;;5108877;28;20120;-45
2023/06/22 08:01:37;;;;;;;0.10;0.10;;;;;;;;;;5107199;28;20352;-43
2023/06/22 08:04:02;;;;;;;0.10;0.10;;;;;;;;;;5108397;28;20039;-44
2023/06/22 08:06:29;;;;;;;0.15;0.15;;;;;;;;;;5108795;28;20399;-42
2023/06/22 08:08:58;;;;;;;0.10;0.10;;;;;;;;;;5106197;28;20047;-50
2023/06/22 08:11:25;;;;;;;0.10;0.10;;;;;;;;;;5107226;28;20052;-45
2023/06/22 08:13:51;;;;;;;0.10;0.10;;;;;;;;;;5107572;28;20051;-51
2023/06/22 08:16:16;;;;;;;0.10;0.10;;;;;;;;;;5107343;28;20143;-42
2023/06/22 08:18:42;;;;;;;0.10;0.10;;;;;;;;;;5102688;28;20138;-42
2023/06/22 08:21:07;;;;;;;0.10;0.10;;;;;;;;;;5113583;28;20076;-43
2023/06/22 08:23:33;;;;;;;0.10;0.10;;;;;;;;;;5108236;28;20050;-42
2023/06/22 08:25:58;;;;;;;0.10;0.10;;;;;;;;;;5108603;28;20395;-42
2023/06/22 08:28:24;;;;;;;0.10;0.10;;;;;;;;;;5106453;28;20076;-43
2023/06/22 08:30:49;;;;;;;0.10;0.10;;;;;;;;;;5106706;28;20048;-43
2023/06/22 08:33:15;;;;;;;0.10;0.10;;;;;;;;;;5107563;28;20390;-44
2023/06/22 08:35:53;;;;;;;;;;;;;;;;;;5108336;28;20054;-44
2023/06/22 08:38:18;;;;;;;0.10;0.10;;;;;;;;;;5107394;28;20010;-45
2023/06/22 08:40:44;;;;;;;0.10;0.10;;;;;;;;;;5106147;28;20047;-44
2023/06/22 08:43:09;;;;;;;0.10;0.10;;;;;;;;;;5107913;28;20036;-47
2023/06/22 08:45:35;;;;;;;0.10;0.10;;;;;;;;;;5108637;28;20044;-43
2023/06/22 08:48:01;;;;;;;0.10;0.10;;;;;;;;;;5110988;28;20047;-45
2023/06/22 08:50:26;;;;;;;0.32;0.17;;;;;;;;;;5106829;28;20048;-45
2023/06/22 08:52:52;;;;;;;0.10;0.10;;;;;;;;;;5107454;28;20511;-42
2023/06/22 08:55:18;;;;;;;0.10;0.10;;;;;;;;;;5106818;28;20035;-42
2023/06/22 08:57:44;;;;;;;0.10;0.10;;;;;;;;;;5107166;28;20047;-45
2023/06/22 09:00:17;;;;;;;0.10;0.10;;;;;;;;;;5106990;28;20078;-42
2023/06/22 09:02:43;;;;;;;0.10;0.10;;;;;;;;;;5106438;28;20393;-44
2023/06/22 09:05:09;;;;;;;0.10;0.10;;;;;;;;;;5107310;28;20539;-42
2023/06/22 09:07:35;;;;;;;0.10;0.10;;;;;;;;;;5106571;28;20154;-42
2023/06/22 09:10:00;;;;;;;0.10;0.10;;;;;;;;;;5106706;28;20354;-43
2023/06/22 09:12:30;;;;;;;0.10;0.10;;;;;;;;;;5107574;28;20318;-42
2023/06/22 09:14:56;;;;;;;0.10;0.10;;;;;;;;;;5105758;28;20518;-42
2023/06/22 09:17:21;;;;;;;0.10;0.10;;;;;;;;;;5106702;28;20050;-43
2023/06/22 09:19:47;;;;;;;0.10;0.10;;;;;;;;;;5100295;27;20052;-42
2023/06/22 09:22:13;;;;;;;0.10;0.10;;;;;;;;;;5106919;28;20040;-43
2023/06/22 09:24:38;;;;;;;0.10;0.10;;;;;;;;;;5107071;28;20407;-43
2023/06/22 09:27:04;;;;;;;0.10;0.10;;;;;;;;;;5106781;28;20451;-41
2023/06/22 09:29:33;;;;;;;0.10;0.10;;;;;;;;;;5106750;28;20493;-42
2023/06/22 09:31:58;;;;;;;0.10;0.10;;;;;;;;;;5104818;28;20055;-42
2023/06/22 09:34:24;;;;;;;0.10;0.10;;;;;;;;;;5105593;28;20047;-42
2023/06/22 09:36:49;;;;;;;0.10;0.10;;;;;;;;;;5106823;28;20039;-43
2023/06/22 09:39:16;;;;;;;0.10;0.10;;;;;;;;;;5105667;28;20059;-46
2023/06/22 09:41:42;;;;;;;0.10;0.10;;;;;;;;;;5105310;28;20229;-42
2023/06/22 09:44:07;;;;;;;0.10;0.10;;;;;;;;;;5106037;28;20044;-41
2023/06/22 09:46:33;;;;;;;0.35;0.30;;;;;;;;;;5106569;28;20354;-42
2023/06/22 09:48:58;;;;;;;0.10;0.10;;;;;;;;;;5105263;28;20360;-43
2023/06/22 09:51:24;;;;;;;0.30;0.30;;;;;;;;;;5106353;28;20051;-41
2023/06/22 09:53:50;;;;;;;0.10;0.10;;;;;;;;;;5106211;28;20116;-42
2023/06/22 09:56:16;;;;;;;0.15;0.15;;;;;;;;;;5087400;28;20064;-41
2023/06/22 09:58:42;;;;;;;0.10;0.10;;;;;;;;;;5105523;28;20447;-43
2023/06/22 10:01:07;;;;;;;0.10;0.10;;;;;;;;;;5106192;28;20107;-44
2023/06/22 10:03:33;;;;;;;0.10;0.10;;;;;;;;;;5104949;28;20128;-42
2023/06/22 10:05:59;;;;;;;0.10;0.10;;;;;;;;;;5111600;28;20048;-42
2023/06/22 10:08:24;;;;;;;0.10;0.10;;;;;;;;;;5105769;28;20196;-43
2023/06/22 10:10:50;;;;;;;0.10;0.10;;;;;;;;;;5104483;28;20043;-44
2023/06/22 10:13:19;;;;;;;0.10;0.10;;;;;;;;;;5106196;28;20044;-56
2023/06/22 10:15:49;;;;;;;0.10;0.10;;;;;;;;;;5104118;28;20104;-51
2023/06/22 10:18:15;;;;;;;0.10;0.10;;;;;;;;;;5105727;28;20051;-41
2023/06/22 10:20:41;;;;;;;0.10;0.10;;;;;;;;;;5104151;28;20048;-42
2023/06/22 10:23:07;;;;;;;0.15;0.15;;;;;;;;;;5106333;28;20313;-44
2023/06/22 10:25:32;;;;;;;0.10;0.10;;;;;;;;;;5105189;28;20047;-43
2023/06/22 10:27:58;;;;;;;0.10;0.10;;;;;;;;;;5105439;28;20134;-54
2023/06/22 10:30:24;;;;;;;0.10;0.10;;;;;;;;;;5105784;28;20051;-42
2023/06/22 10:32:49;;;;;;;0.30;0.30;;;;;;;;;;5104610;28;20059;-41
2023/06/22 10:35:15;;;;;;;0.10;0.10;;;;;;;;;;5105689;28;20423;-43
2023/06/22 10:37:43;;;;;;;0.10;0.10;;;;;;;;;;5106062;28;20464;-44
2023/06/22 10:40:09;;;;;;;0.10;0.10;;;;;;;;;;5104788;28;20441;-43
2023/06/22 10:42:34;;;;;;;0.10;0.10;;;;;;;;;;5105516;28;20468;-41
2023/06/22 10:45:00;;;;;;;0.10;0.10;;;;;;;;;;5105873;28;20119;-41
2023/06/22 10:47:25;;;;;;;0.10;0.10;;;;;;;;;;5105645;28;20052;-43
2023/06/22 10:49:51;;;;;;;0.10;0.10;;;;;;;;;;5104703;28;20412;-45
2023/06/22 10:52:17;;;;;;;0.10;0.10;;;;;;;;;;5105360;28;20039;-42
2023/06/22 10:54:42;;;;;;;0.10;0.10;;;;;;;;;;5105572;28;20039;-41
2023/06/22 10:57:08;;;;;;;0.10;0.10;;;;;;;;;;5104759;28;20159;-42
2023/06/22 10:59:33;;;;;;;0.10;0.10;;;;;;;;;;5105508;28;20043;-44
2023/06/22 11:01:59;;;;;;;0.10;0.10;;;;;;;;;;5105466;28;20067;-43
2023/06/22 11:04:24;;;;;;;0.10;0.10;;;;;;;;;;5112268;28;20123;-43
2023/06/22 11:06:50;;;;;;;0.10;0.10;;;;;;;;;;5126963;28;20059;-41
2023/06/22 11:09:23;;;;;;;0.10;0.10;;;;;;;;;;5110208;28;20055;-42
2023/06/22 11:11:55;;;;;;;0.10;0.10;;;;;;;;;;5089293;28;20043;-42
2023/06/22 11:14:22;;;;;;;0.10;0.10;;;;;;;;;;5104607;28;20048;-41
2023/06/22 11:16:48;;;;;;;0.10;0.10;;;;;;;;;;5106108;28;20047;-44
2023/06/22 11:19:14;;;;;;;0.10;0.10;;;;;;;;;;5117632;28;20043;-41
2023/06/22 11:21:39;;;;;;;0.10;0.10;;;;;;;;;;5097463;28;20104;-43
2023/06/22 11:24:05;;;;;;;0.10;0.10;;;;;;;;;;5102943;28;20052;-43
2023/06/22 11:26:31;;;;;;;0.10;0.10;;;;;;;;;;5113827;28;20039;-42
2023/06/22 11:28:57;;;;;;;0.10;0.10;;;;;;;;;;5127578;28;20470;-42
2023/06/22 11:31:23;;;;;;;0.20;0.20;;;;;;;;;;5094613;28;20090;-45
2023/06/22 11:33:52;;;;;;;0.10;0.10;;;;;;;;;;5108406;28;20040;-42
2023/06/22 11:36:18;;;;;;;0.10;0.10;;;;;;;;;;5108044;28;20052;-41
2023/06/22 11:38:43;;;;;;;0.10;0.10;;;;;;;;;;5108264;28;20078;-42
2023/06/22 11:41:09;;;;;;;0.10;0.10;;;;;;;;;;5108247;28;20098;-44
2023/06/22 11:43:35;;;;;;;0.10;0.10;;;;;;;;;;5108275;28;20047;-42
2023/06/22 11:46:02;;;;;;;0.10;0.10;;;;;;;;;;5108204;28;20067;-42
2023/06/22 11:48:27;;;;;;;0.10;0.10;;;;;;;;;;5108143;28;20054;-42
2023/06/22 11:50:53;;;;;;;0.30;0.30;;;;;;;;;;5106129;28;20305;-43
2023/06/22 11:53:20;;;;;;;0.30;0.20;;;;;;;;;;5106961;28;20062;-41
2023/06/22 11:55:45;;;;;;;0.10;0.10;;;;;;;;;;5106586;28;20059;-43
2023/06/22 11:58:12;;;;;;;0.17;0.17;;;;;;;;;;5107908;28;20306;-41
2023/06/22 12:00:37;;;;;;;0.20;0.20;;;;;;;;;;5090483;28;20381;-42
2023/06/22 12:03:16;;;;;;;0.10;0.10;;;;;;;;;;5109200;28;20054;-41
2023/06/22 12:05:42;;;;;;;0.10;0.10;;;;;;;;;;5108920;28;20081;-42
2023/06/22 12:08:07;;;;;;;0.10;0.10;;;;;;;;;;5108293;28;20055;-44
2023/06/22 12:10:34;;;;;;;0.10;0.10;;;;;;;;;;5108158;28;20051;-41
2023/06/22 12:13:00;;;;;;;0.10;0.10;;;;;;;;;;5108578;28;20467;-43
2023/06/22 12:15:26;;;;;;;0.10;0.10;;;;;;;;;;5106846;28;20100;-45
2023/06/22 12:17:51;;;;;;;0.10;0.10;;;;;;;;;;5110674;28;20047;-43
2023/06/22 12:20:17;;;;;;;0.10;0.10;;;;;;;;;;5122462;28;20416;-43
2023/06/22 12:22:43;;;;;;;0.10;0.10;;;;;;;;;;5108820;28;20047;-41
2023/06/22 12:25:09;;;;;;;0.10;0.10;;;;;;;;;;5109353;28;20051;-45
2023/06/22 12:27:35;;;;;;;0.10;0.10;;;;;;;;;;5109025;28;20048;-42
2023/06/22 12:30:00;;;;;;;0.10;0.10;;;;;;;;;;5108639;28;20044;-42
2023/06/22 12:32:26;;;;;;;0.10;0.10;;;;;;;;;;5108426;28;20151;-43
2023/06/22 12:34:52;;;;;;;0.10;0.10;;;;;;;;;;5108546;28;20047;-42
2023/06/22 12:37:17;;;;;;;0.10;0.10;;;;;;;;;;5108085;28;20051;-42
2023/06/22 12:39:43;;;;;;;0.10;0.10;;;;;;;;;;5107127;28;20039;-45
2023/06/22 12:42:09;;;;;;;0.10;0.10;;;;;;;;;;5108528;28;20421;-42
2023/06/22 12:44:35;;;;;;;0.10;0.10;;;;;;;;;;5108489;28;20043;-43
2023/06/22 12:47:00;;;;;;;0.10;0.10;;;;;;;;;;5108166;28;20097;-42
2023/06/22 12:49:26;;;;;;;0.10;0.10;;;;;;;;;;5107126;28;20534;-41
2023/06/22 12:51:51;;;;;;;0.10;0.10;;;;;;;;;;5108293;28;20058;-42
2023/06/22 12:54:17;;;;;;;0.10;0.10;;;;;;;;;;5107710;28;20184;-43
2023/06/22 12:56:44;;;;;;;0.10;0.10;;;;;;;;;;5107664;28;20237;-43
2023/06/22 12:59:10;;;;;;;0.10;0.10;;;;;;;;;;5107581;28;20515;-43
2023/06/22 13:01:37;;;;;;;0.10;0.10;;;;;;;;;;5106560;28;20047;-43
2023/06/22 13:04:02;;;;;;;0.10;0.10;;;;;;;;;;5107494;28;20082;-42
2023/06/22 13:06:28;;;;;;;0.10;0.10;;;;;;;;;;5107686;28;20438;-41
2023/06/22 13:08:54;;;;;;;0.10;0.10;;;;;;;;;;5106422;28;20507;-44
2023/06/22 13:11:22;;;;;;;0.10;0.10;;;;;;;;;;5107688;28;20101;-44
2023/06/22 13:13:48;;;;;;;0.10;0.10;;;;;;;;;;5107690;28;20039;-42
2023/06/22 13:16:13;;;;;;;0.10;0.10;;;;;;;;;;5107514;28;20052;-42
2023/06/22 13:18:39;;;;;;;0.10;0.10;;;;;;;;;;5114415;28;20075;-41
2023/06/22 13:21:05;;;;;;;0.10;0.10;;;;;;;;;;5114233;28;20397;-44
2023/06/22 13:23:30;;;;;;;0.10;0.10;;;;;;;;;;5089027;28;20051;-43
2023/06/22 13:25:57;;;;;;;0.10;0.10;;;;;;;;;;5107404;28;20051;-45
2023/06/22 13:28:23;;;;;;;0.10;0.10;;;;;;;;;;5107146;28;20051;-46
2023/06/22 13:30:54;;;;;;;0.10;0.10;;;;;;;;;;5106616;28;20047;-47
2023/06/22 13:33:19;;;;;;;0.10;0.10;;;;;;;;;;5107479;28;20444;-44
2023/06/22 13:35:45;;;;;;;0.10;0.10;;;;;;;;;;5107373;28;20209;-48
2023/06/22 13:38:10;;;;;;;0.20;0.20;;;;;;;;;;5106749;28;20104;-46
2023/06/22 13:40:38;;;;;;;0.10;0.10;;;;;;;;;;5107129;28;20124;-47
2023/06/22 13:43:04;;;;;;;0.10;0.10;;;;;;;;;;5089784;28;20104;-45
2023/06/22 13:45:30;;;;;;;0.10;0.10;;;;;;;;;;5107669;28;20047;-45
2023/06/22 13:47:56;;;;;;;0.10;0.10;;;;;;;;;;5107484;28;20052;-46
2023/06/22 13:50:21;;;;;;;0.10;0.10;;;;;;;;;;5105105;27;20074;-47
2023/06/22 13:52:47;;;;;;;0.10;0.10;;;;;;;;;;5107826;28;20047;-45
2023/06/22 13:55:14;;;;;;;0.10;0.10;;;;;;;;;;5107560;28;20058;-47
2023/06/22 13:57:39;;;;;;;0.10;0.10;;;;;;;;;;5105770;28;20071;-47
2023/06/22 14:00:05;;;;;;;0.10;0.10;;;;;;;;;;5107510;28;20075;-47
2023/06/22 14:02:31;;;;;;;0.10;0.10;;;;;;;;;;5107584;28;20134;-46
2023/06/22 14:04:57;;;;;;;0.10;0.10;;;;;;;;;;5107439;28;20058;-48
2023/06/22 14:07:24;;;;;;;0.10;0.10;;;;;;;;;;5108000;28;20052;-46
2023/06/22 14:09:49;;;;;;;0.10;0.10;;;;;;;;;;5106976;28;20086;-45
2023/06/22 14:12:15;;;;;;;0.10;0.10;;;;;;;;;;5107431;28;20047;-46
2023/06/22 14:14:41;;;;;;;0.10;0.10;;;;;;;;;;5107224;28;20059;-43
2023/06/22 14:17:06;;;;;;;0.10;0.10;;;;;;;;;;5106203;28;20104;-47
2023/06/22 14:19:32;;;;;;;0.10;0.10;;;;;;;;;;5122782;28;20053;-44
2023/06/22 14:21:57;;;;;;;0.10;0.10;;;;;;;;;;5107070;28;20134;-46
2023/06/22 14:24:23;;;;;;;0.10;0.10;;;;;;;;;;5089309;28;20093;-45
2023/06/22 14:26:52;;;;;;;0.10;0.10;;;;;;;;;;5090116;28;20054;-47
2023/06/22 14:29:17;;;;;;;0.10;0.10;;;;;;;;;;5107861;28;20047;-48
2023/06/22 14:31:45;;;;;;;0.10;0.10;;;;;;;;;;5107472;28;20728;-46
2023/06/22 14:34:10;;;;;;;0.10;0.10;;;;;;;;;;5108123;28;20142;-47
2023/06/22 14:36:36;;;;;;;0.10;0.10;;;;;;;;;;5107689;28;20054;-47
2023/06/22 14:39:01;;;;;;;0.10;0.10;;;;;;;;;;5106522;28;20101;-44